KLOL

Details ICAO KLOL
Name Derby Fld
Region United States
Timezone America/Los_Angeles (UTC-8.0)
Plans Departing 3
Arriving 4
Stats Elevation 3,904 ft / 1,190 m (AMSL)
Location 40.066343° -118.564959°
Runways 2
Magnetic Variation 13.263° E
Sunrise 2017-12-15 15:10:48 UTC / 2017-12-15 07:10:48 Local
Sunset 2017-12-16 00:31:07 UTC / 2017-12-15 16:31:07 Local
Advertisement - Login to hide

Runways

ID Width Length Bearing (true) Bearing (mag) Surface Threshold Offset Overrun Length
01 75 ft / 23 m 5,532 ft / 1,686 m 30.32° 17.06° Asphalt 0 ft / 0 m 0 ft / 0 m
07 75 ft / 23 m 4,965 ft / 1,513 m 90.41° 77.15° Asphalt 0 ft / 0 m 0 ft / 0 m
19 75 ft / 23 m 5,532 ft / 1,686 m 210.33° 197.07° Asphalt 0 ft / 0 m 0 ft / 0 m
25 75 ft / 23 m 4,965 ft / 1,513 m 270.43° 257.17° Asphalt 121 ft / 37 m 0 ft / 0 m

Map

Weather


0- 5 10 15 20 25 30 35+ Temperature / ° C

Clouds and Precipitation
Forecast for 2017-12-15 18:00 UTC. Updated an hour ago

Ground ~20,000 ft ~40,000 ft Winds

METAR

KLOL 151353Z AUTO 00000KT 10SM CLR M14/M17 A3032 RMK AO2 SLP314 T11441167 TSNO

TAF

Not found

Frequencies

Recorded 120.67 MHz ASOS
Unicom 122.80 MHz CTAF/UNICOM
Warning: Do not use this data for real-world aviation or navigation. No guarantee of current accuracy is given.